createdAt,value
2019-01-19T00:00:04.651Z,27.57
2019-01-19T00:02:50.192Z,21.93
2019-01-19T00:05:52.591Z,23.57
2019-01-19T00:08:33.046Z,21.00
2019-01-19T00:11:55.884Z,19.93
2019-01-19T00:15:01.081Z,24.33
2019-01-19T00:18:26.307Z,20.20
2019-01-19T00:21:18.973Z,26.37
2019-01-19T00:24:47.997Z,22.27
2019-01-19T00:27:42.868Z,32.50
2019-01-19T00:30:43.212Z,25.70
2019-01-19T00:33:51.957Z,20.57
2019-01-19T00:37:11.751Z,16.70
2019-01-19T00:40:39.153Z,21.40
2019-01-19T00:43:26.402Z,19.50
2019-01-19T00:46:38.988Z,22.23
2019-01-19T00:49:41.265Z,24.77
2019-01-19T00:52:40.400Z,25.63
2019-01-19T00:55:51.411Z,21.97
2019-01-19T00:58:57.933Z,21.73
2019-01-19T01:02:29.909Z,18.87
2019-01-19T01:05:28.557Z,21.57
2019-01-19T01:08:41.485Z,19.83
2019-01-19T01:11:40.820Z,18.97
2019-01-19T01:15:12.736Z,18.97
2019-01-19T01:17:59.459Z,19.37
2019-01-19T01:21:10.782Z,20.17
2019-01-19T01:24:08.177Z,17.67
2019-01-19T01:27:19.296Z,20.07
2019-01-19T01:30:18.311Z,22.40
2019-01-19T01:33:36.183Z,25.83
2019-01-19T01:36:58.982Z,22.10
2019-01-19T01:39:41.308Z,22.73
2019-01-19T01:42:53.088Z,24.60
2019-01-19T01:45:49.897Z,24.23
2019-01-19T01:48:53.908Z,24.90
2019-01-19T01:51:50.161Z,23.60
2019-01-19T01:54:58.104Z,21.73
2019-01-19T01:57:53.050Z,20.07
2019-01-19T02:00:50.072Z,22.57
2019-01-19T02:04:02.904Z,20.20
2019-01-19T02:06:55.787Z,22.17
2019-01-19T02:10:18.568Z,25.00
2019-01-19T02:13:07.306Z,19.80
2019-01-19T02:16:12.428Z,18.83
2019-01-19T02:19:41.856Z,18.47
2019-01-19T02:22:44.306Z,20.63
2019-01-19T02:26:13.184Z,20.40
2019-01-19T02:28:53.573Z,23.50
2019-01-19T02:32:00.971Z,25.20
2019-01-19T02:34:51.987Z,24.33
2019-01-19T02:38:11.878Z,24.23
2019-01-19T02:41:13.849Z,21.83
2019-01-19T02:44:29.322Z,22.00
2019-01-19T02:47:24.244Z,20.30
2019-01-19T02:50:03.752Z,20.80
2019-01-19T02:52:58.075Z,22.33
2019-01-19T02:56:03.734Z,19.07
2019-01-19T02:59:12.439Z,19.50
2019-01-19T03:02:39.077Z,20.07
2019-01-19T03:05:56.321Z,18.90
2019-01-19T03:09:05.449Z,21.00
2019-01-19T03:12:14.364Z,18.07
2019-01-19T03:15:27.099Z,19.17
2019-01-19T03:18:19.123Z,19.50
2019-01-19T03:21:26.070Z,22.17
2019-01-19T03:24:46.099Z,21.37
2019-01-19T03:27:38.564Z,17.63
2019-01-19T03:30:43.793Z,23.20
2019-01-19T03:34:09.753Z,22.60
2019-01-19T03:37:19.318Z,22.13
2019-01-19T03:40:51.152Z,21.30
2019-01-19T03:44:03.219Z,19.80
2019-01-19T03:47:13.353Z,19.50
2019-01-19T03:50:13.913Z,20.30
2019-01-19T03:53:28.038Z,22.80
2019-01-19T03:56:41.837Z,21.67
2019-01-19T03:59:52.805Z,20.30
2019-01-19T04:03:09.498Z,23.10
2019-01-19T04:05:58.568Z,20.90
2019-01-19T04:09:07.243Z,20.70
2019-01-19T04:12:39.224Z,23.70
2019-01-19T04:15:49.061Z,21.40
2019-01-19T04:18:30.544Z,24.70
2019-01-19T04:21:42.057Z,24.07
2019-01-19T04:24:21.077Z,24.47
2019-01-19T04:26:55.391Z,25.33
2019-01-19T04:29:27.363Z,24.33
2019-01-19T04:31:59.304Z,23.03
2019-01-19T04:34:31.874Z,23.93
2019-01-19T04:37:03.881Z,21.83
2019-01-19T04:39:35.841Z,21.77
2019-01-19T04:42:08.326Z,22.03
2019-01-19T04:44:40.279Z,22.93
2019-01-19T04:47:12.255Z,21.97
2019-01-19T04:49:44.220Z,22.67
2019-01-19T04:52:16.221Z,19.50
2019-01-19T04:54:48.460Z,20.60
2019-01-19T04:57:20.496Z,17.10
2019-01-19T04:59:52.442Z,18.03
2019-01-19T05:02:24.417Z,18.27
2019-01-19T05:04:56.445Z,17.17
2019-01-19T05:07:28.423Z,18.87
2019-01-19T05:10:00.525Z,19.60
2019-01-19T05:12:32.481Z,19.03
2019-01-19T05:15:08.056Z,17.00
2019-01-19T05:17:40.169Z,18.93
2019-01-19T05:20:12.122Z,21.03
2019-01-19T05:22:44.109Z,18.40
2019-01-19T05:25:16.055Z,18.67
2019-01-19T05:27:48.055Z,18.83
2019-01-19T05:30:20.798Z,21.30
2019-01-19T05:32:54.116Z,18.33
2019-01-19T05:35:26.111Z,19.57
2019-01-19T05:37:58.085Z,20.27
2019-01-19T05:40:30.075Z,19.10
2019-01-19T05:43:02.072Z,18.70
2019-01-19T05:45:34.046Z,19.80
2019-01-19T05:48:05.997Z,20.87
2019-01-19T05:50:37.970Z,19.30
2019-01-19T05:53:09.933Z,17.80
2019-01-19T05:55:41.915Z,18.90
2019-01-19T05:58:13.887Z,18.80
2019-01-19T06:00:45.891Z,20.47
2019-01-19T06:03:17.842Z,20.93
2019-01-19T06:05:49.811Z,18.70
2019-01-19T06:08:21.779Z,20.43
2019-01-19T06:10:53.773Z,21.97
2019-01-19T06:13:25.743Z,21.93
2019-01-19T06:15:57.767Z,21.47
2019-01-19T06:18:31.640Z,18.70
2019-01-19T06:21:05.440Z,20.03
2019-01-19T06:23:37.382Z,19.30
2019-01-19T06:26:09.406Z,18.60
2019-01-19T06:28:41.348Z,20.43
2019-01-19T06:31:13.355Z,18.67
2019-01-19T06:33:45.300Z,20.53
2019-01-19T06:36:17.335Z,21.27
2019-01-19T06:38:49.313Z,20.43
2019-01-19T06:41:21.347Z,20.13
2019-01-19T06:43:53.328Z,19.40
2019-01-19T06:46:25.305Z,18.40
2019-01-19T06:48:57.397Z,19.10
2019-01-19T06:51:29.392Z,17.03
2019-01-19T06:54:01.926Z,18.00
2019-01-19T06:56:33.901Z,19.53
2019-01-19T06:59:05.903Z,17.17
2019-01-19T07:01:37.908Z,16.73
2019-01-19T07:04:09.921Z,18.03
2019-01-19T07:06:41.875Z,18.57
2019-01-19T07:09:13.859Z,18.27
2019-01-19T07:11:46.340Z,19.40
2019-01-19T07:14:18.362Z,18.20
2019-01-19T07:16:50.338Z,19.13
2019-01-19T07:19:22.355Z,20.80
2019-01-19T07:21:54.395Z,16.43
2019-01-19T07:24:26.334Z,17.50
2019-01-19T07:26:58.307Z,20.90
2019-01-19T07:29:30.337Z,17.23
2019-01-19T07:32:02.280Z,16.20
2019-01-19T07:34:34.330Z,18.27
2019-01-19T07:37:09.973Z,19.63
2019-01-19T07:39:40.260Z,18.87
2019-01-19T07:42:12.223Z,18.53
2019-01-19T07:44:44.224Z,17.97
2019-01-19T07:47:16.597Z,16.43
2019-01-19T07:49:48.624Z,18.60
2019-01-19T07:52:20.598Z,18.17
2019-01-19T07:54:52.602Z,18.13
2019-01-19T07:57:31.067Z,19.90
2019-01-19T07:59:58.515Z,18.40
2019-01-19T08:02:30.483Z,22.33
2019-01-19T08:05:02.568Z,20.80
2019-01-19T08:07:34.553Z,20.87
2019-01-19T08:10:08.197Z,21.23
2019-01-19T08:12:40.177Z,21.97
2019-01-19T08:15:14.952Z,21.17
2019-01-19T08:17:46.935Z,25.20
2019-01-19T08:20:19.060Z,20.40
2019-01-19T08:22:51.163Z,20.23
2019-01-19T08:25:23.253Z,18.47
2019-01-19T08:27:56.051Z,19.13
2019-01-19T08:30:29.008Z,20.30
2019-01-19T08:33:00.975Z,27.13
2019-01-19T08:35:33.385Z,17.57
2019-01-19T08:38:05.373Z,19.50
2019-01-19T08:40:37.351Z,16.60
2019-01-19T08:43:16.381Z,16.87
2019-01-19T08:45:48.410Z,18.90
2019-01-19T08:48:20.619Z,16.50
2019-01-19T08:50:52.688Z,16.13
2019-01-19T08:53:24.700Z,20.07
2019-01-19T08:55:56.711Z,18.97
2019-01-19T08:58:30.039Z,36.33
2019-01-19T09:01:02.114Z,25.30
2019-01-19T09:03:34.092Z,22.80
2019-01-19T09:06:06.136Z,22.40
2019-01-19T09:08:38.166Z,21.27
2019-01-19T09:11:10.178Z,22.37
2019-01-19T09:13:42.218Z,18.17
2019-01-19T09:16:16.551Z,23.20
2019-01-19T09:18:48.578Z,20.27
2019-01-19T09:21:20.608Z,22.60
2019-01-19T09:24:05.049Z,18.50
2019-01-19T09:26:37.054Z,18.77
2019-01-19T09:29:11.827Z,19.97
2019-01-19T09:31:44.826Z,18.43
2019-01-19T09:34:17.094Z,19.50
2019-01-19T09:36:49.127Z,18.93
2019-01-19T09:39:21.172Z,17.80
2019-01-19T09:41:53.290Z,17.87
2019-01-19T09:44:25.406Z,18.10
2019-01-19T09:46:57.421Z,17.87
2019-01-19T09:49:29.454Z,18.67
2019-01-19T09:52:01.511Z,20.87
2019-01-19T09:54:33.513Z,18.53
2019-01-19T09:57:05.567Z,18.03
2019-01-19T09:59:37.621Z,17.83
2019-01-19T10:02:09.690Z,21.57
2019-01-19T10:04:41.732Z,19.17
2019-01-19T10:07:13.770Z,19.83
2019-01-19T10:09:45.803Z,19.50
2019-01-19T10:12:17.781Z,22.40
2019-01-19T10:14:49.855Z,24.53
2019-01-19T10:17:21.859Z,20.60
2019-01-19T10:19:53.906Z,20.73
2019-01-19T10:22:26.025Z,21.30
2019-01-19T10:24:58.116Z,22.27
2019-01-19T10:27:37.280Z,23.00
2019-01-19T10:30:05.901Z,21.70
2019-01-19T10:32:37.940Z,24.00
2019-01-19T10:35:10.735Z,21.93
2019-01-19T10:37:43.053Z,22.17
2019-01-19T10:40:15.676Z,24.23
2019-01-19T10:42:47.665Z,21.03
2019-01-19T10:45:21.587Z,21.43
2019-01-19T10:47:53.585Z,20.67
2019-01-19T10:50:25.647Z,23.07
2019-01-19T10:52:57.647Z,19.93
2019-01-19T10:55:30.777Z,21.60
2019-01-19T10:58:02.912Z,21.63
2019-01-19T11:00:35.111Z,23.57
2019-01-19T11:03:07.098Z,21.73
2019-01-19T11:05:40.939Z,23.30
2019-01-19T11:08:13.203Z,27.30
2019-01-19T11:10:45.274Z,23.83
2019-01-19T11:13:17.352Z,22.83
2019-01-19T11:15:49.375Z,23.93
2019-01-19T11:18:21.405Z,24.40
2019-01-19T11:20:53.397Z,22.20
2019-01-19T11:23:25.412Z,23.13
2019-01-19T11:25:57.456Z,21.07
2019-01-19T11:28:29.462Z,20.57
2019-01-19T11:31:01.478Z,20.50
2019-01-19T11:33:33.517Z,22.47
2019-01-19T11:36:05.507Z,22.63
2019-01-19T11:38:37.531Z,28.50
2019-01-19T11:41:09.580Z,20.57
2019-01-19T11:43:43.495Z,20.23
2019-01-19T11:46:15.465Z,20.13
2019-01-19T11:48:47.472Z,20.70
2019-01-19T11:51:19.500Z,23.00
2019-01-19T11:53:51.619Z,24.07
2019-01-19T11:56:23.627Z,20.23
2019-01-19T11:58:55.719Z,23.03
2019-01-19T12:01:27.734Z,20.80
2019-01-19T12:03:59.797Z,21.03
2019-01-19T12:06:31.800Z,22.60
2019-01-19T12:09:06.048Z,23.87
2019-01-19T12:11:38.040Z,19.70
2019-01-19T12:14:10.134Z,19.37
2019-01-19T12:16:42.181Z,18.47
2019-01-19T12:19:16.177Z,18.70
2019-01-19T12:21:48.297Z,22.30
2019-01-19T12:24:20.331Z,21.07
2019-01-19T12:26:52.326Z,22.87
2019-01-19T12:29:24.368Z,18.47
2019-01-19T12:31:56.408Z,19.50
2019-01-19T12:34:28.918Z,20.60
2019-01-19T12:37:02.759Z,20.47
2019-01-19T12:39:35.975Z,19.33
2019-01-19T12:42:08.136Z,19.30
2019-01-19T12:44:40.157Z,18.77
2019-01-19T12:47:12.202Z,24.00
2019-01-19T12:49:45.590Z,21.27
2019-01-19T12:52:17.746Z,25.37
2019-01-19T12:54:49.786Z,22.07
2019-01-19T12:57:21.793Z,19.97
2019-01-19T12:59:53.843Z,19.67
2019-01-19T13:02:25.857Z,19.00
2019-01-19T13:04:57.938Z,21.20
2019-01-19T13:07:29.970Z,19.20
2019-01-19T13:10:11.358Z,21.10
2019-01-19T13:13:02.605Z,21.23
2019-01-19T13:16:11.113Z,19.17
2019-01-19T13:19:19.831Z,20.10
2019-01-19T13:22:43.009Z,18.90
2019-01-19T13:25:37.466Z,19.93
2019-01-19T13:28:44.211Z,21.97
2019-01-19T13:31:39.576Z,21.13
2019-01-19T13:34:40.128Z,27.70
2019-01-19T13:37:51.098Z,20.67
2019-01-19T13:41:01.971Z,19.07
2019-01-19T13:44:12.914Z,19.63
2019-01-19T13:47:23.845Z,21.13
2019-01-19T13:50:34.805Z,21.67
2019-01-19T13:53:45.725Z,20.67
2019-01-19T13:56:56.624Z,21.30
2019-01-19T14:00:07.586Z,20.70
2019-01-19T14:03:18.518Z,20.60
2019-01-19T14:06:29.416Z,22.53
2019-01-19T14:09:33.200Z,19.07
2019-01-19T14:12:44.104Z,21.33
2019-01-19T14:15:55.006Z,21.50
2019-01-19T14:19:05.934Z,18.53
2019-01-19T14:22:16.867Z,21.37
2019-01-19T14:25:27.828Z,19.83
2019-01-19T14:28:38.830Z,26.97
2019-01-19T14:31:49.766Z,28.17
2019-01-19T14:35:00.793Z,28.23
2019-01-19T14:38:11.843Z,22.43
2019-01-19T14:41:22.776Z,20.50
2019-01-19T14:44:33.730Z,22.47
2019-01-19T14:47:29.043Z,19.40
2019-01-19T14:50:40.069Z,19.50
2019-01-19T14:53:50.992Z,19.57
2019-01-19T14:56:50.737Z,20.20
2019-01-19T14:59:49.407Z,20.03
2019-01-19T15:02:47.703Z,20.53
2019-01-19T15:05:44.977Z,23.17
2019-01-19T15:08:55.906Z,25.50
2019-01-19T15:11:55.261Z,19.67
2019-01-19T15:15:06.191Z,20.03
2019-01-19T15:18:17.243Z,23.50
2019-01-19T15:21:28.126Z,22.40
2019-01-19T15:24:25.790Z,22.17
2019-01-19T15:27:38.193Z,26.27
2019-01-19T15:30:49.191Z,29.40
2019-01-19T15:33:52.712Z,25.07
2019-01-19T15:36:50.304Z,21.10
2019-01-19T15:40:09.893Z,21.77
2019-01-19T15:43:32.813Z,35.33
2019-01-19T15:46:43.702Z,27.03
2019-01-19T15:49:54.616Z,22.43
2019-01-19T15:52:50.851Z,22.37
2019-01-19T15:55:46.530Z,23.17
2019-01-19T15:58:57.464Z,21.97
2019-01-19T16:02:03.393Z,21.47
2019-01-19T16:04:58.750Z,20.67
2019-01-19T16:08:16.034Z,20.10
2019-01-19T16:11:24.031Z,21.47
2019-01-19T16:14:22.098Z,22.40
2019-01-19T16:17:30.059Z,22.27
2019-01-19T16:20:44.640Z,23.93
2019-01-19T16:23:47.404Z,27.37
2019-01-19T16:26:51.327Z,24.70
2019-01-19T16:29:55.333Z,22.97
2019-01-19T16:33:08.755Z,22.83
2019-01-19T16:36:11.309Z,24.37
2019-01-19T16:39:40.021Z,27.47
2019-01-19T16:43:01.520Z,28.17
2019-01-19T16:46:27.510Z,27.77
2019-01-19T16:49:20.842Z,29.53
2019-01-19T16:52:29.048Z,31.93
2019-01-19T16:55:49.003Z,25.07
2019-01-19T16:59:20.985Z,27.63
2019-01-19T17:02:22.218Z,26.67
2019-01-19T17:05:27.761Z,31.80
2019-01-19T17:08:41.821Z,30.57
2019-01-19T17:11:55.745Z,29.33
2019-01-19T17:14:53.065Z,31.63
2019-01-19T17:18:26.448Z,32.97
2019-01-19T17:21:35.101Z,31.20
2019-01-19T17:24:34.880Z,29.10
2019-01-19T17:27:21.272Z,31.17
2019-01-19T17:30:40.438Z,30.40
2019-01-19T17:33:27.443Z,29.37
2019-01-19T17:36:40.077Z,31.67
2019-01-19T17:39:51.144Z,33.10
2019-01-19T17:43:07.852Z,33.53
2019-01-19T17:46:11.974Z,34.87
2019-01-19T17:49:28.596Z,37.63
2019-01-19T17:52:35.247Z,34.53
2019-01-19T17:55:43.353Z,44.77
2019-01-19T17:58:49.790Z,41.00
2019-01-19T18:02:05.688Z,34.33
2019-01-19T18:05:25.743Z,37.57
2019-01-19T18:08:31.365Z,33.30
2019-01-19T18:11:33.161Z,38.47
2019-01-19T18:14:57.775Z,37.97
2019-01-19T18:18:05.424Z,32.47
2019-01-19T18:21:16.135Z,41.90
2019-01-19T18:24:25.926Z,36.30
2019-01-19T18:27:23.387Z,39.37
2019-01-19T18:30:38.697Z,36.20
2019-01-19T18:33:30.723Z,37.10
2019-01-19T18:36:34.050Z,38.57
2019-01-19T18:39:31.088Z,41.93
2019-01-19T18:42:40.852Z,38.00
2019-01-19T18:45:56.817Z,39.03
2019-01-19T18:49:01.689Z,34.53
2019-01-19T18:52:15.587Z,39.90
2019-01-19T18:55:14.198Z,45.07
2019-01-19T18:58:13.825Z,47.50
2019-01-19T19:01:48.933Z,43.73
2019-01-19T19:05:13.958Z,47.63
2019-01-19T19:08:14.537Z,45.40
2019-01-19T19:11:28.630Z,41.90
2019-01-19T19:14:23.451Z,40.07
2019-01-19T19:17:22.868Z,46.07
2019-01-19T19:20:46.072Z,50.43
2019-01-19T19:23:43.202Z,41.87
2019-01-19T19:27:00.284Z,45.13
2019-01-19T19:30:08.050Z,44.17
2019-01-19T19:33:07.413Z,46.00
2019-01-19T19:36:23.385Z,45.63
2019-01-19T19:39:13.798Z,50.97
2019-01-19T19:42:13.685Z,50.20
2019-01-19T19:45:41.945Z,42.53
2019-01-19T19:48:37.187Z,50.43
2019-01-19T19:51:48.199Z,45.37
2019-01-19T19:54:20.208Z,44.87
2019-01-19T19:56:52.482Z,45.10
2019-01-19T19:59:24.520Z,48.83
2019-01-19T20:01:56.884Z,51.57
2019-01-19T20:04:29.101Z,48.63
2019-01-19T20:07:01.176Z,50.60
2019-01-19T20:09:33.215Z,54.03
2019-01-19T20:12:08.485Z,51.47
2019-01-19T20:14:40.506Z,51.83
2019-01-19T20:17:12.668Z,52.40
2019-01-19T20:19:44.685Z,52.00
2019-01-19T20:22:16.729Z,54.63
2019-01-19T20:24:48.754Z,50.57
2019-01-19T20:27:20.831Z,49.20
2019-01-19T20:29:52.891Z,59.17
2019-01-19T20:32:25.001Z,54.27
2019-01-19T20:34:57.108Z,66.30
2019-01-19T20:37:29.169Z,64.63
2019-01-19T20:40:01.173Z,58.70
2019-01-19T20:42:33.240Z,56.37
2019-01-19T20:45:07.095Z,54.60
2019-01-19T20:47:39.174Z,47.50
2019-01-19T20:50:11.520Z,44.37
2019-01-19T20:52:43.575Z,43.97
2019-01-19T20:55:15.677Z,44.07
2019-01-19T20:57:47.679Z,37.67
2019-01-19T21:00:19.737Z,43.83
2019-01-19T21:02:51.793Z,44.13
2019-01-19T21:05:23.814Z,45.70
2019-01-19T21:07:55.916Z,44.77
2019-01-19T21:10:31.999Z,43.47
2019-01-19T21:13:01.945Z,41.83
2019-01-19T21:15:34.029Z,44.63
2019-01-19T21:18:06.043Z,45.90
2019-01-19T21:20:38.081Z,54.03
2019-01-19T21:23:10.071Z,45.27
2019-01-19T21:25:42.117Z,41.97
2019-01-19T21:28:14.150Z,49.00
2019-01-19T21:30:46.215Z,54.73
2019-01-19T21:33:18.263Z,72.93
2019-01-19T21:35:50.325Z,72.57
2019-01-19T21:38:22.409Z,60.50
2019-01-19T21:40:54.496Z,65.90
2019-01-19T21:43:26.490Z,51.43
2019-01-19T21:45:58.563Z,45.00
2019-01-19T21:48:30.874Z,43.37
2019-01-19T21:51:02.888Z,42.10
2019-01-19T21:53:34.880Z,44.60
2019-01-19T21:56:06.965Z,47.60
2019-01-19T21:58:38.994Z,43.47
2019-01-19T22:01:11.015Z,43.80
2019-01-19T22:03:43.046Z,46.10
2019-01-19T22:06:15.128Z,56.00
2019-01-19T22:08:47.176Z,53.13
2019-01-19T22:11:19.251Z,51.87
2019-01-19T22:13:51.283Z,48.73
2019-01-19T22:16:23.289Z,68.63
2019-01-19T22:18:55.297Z,56.80
2019-01-19T22:21:27.342Z,48.13
2019-01-19T22:23:59.975Z,48.37
2019-01-19T22:26:32.792Z,47.63
2019-01-19T22:29:04.841Z,48.30
2019-01-19T22:31:36.837Z,39.17
2019-01-19T22:34:08.887Z,37.00
2019-01-19T22:36:43.206Z,39.97
2019-01-19T22:39:15.234Z,42.63
2019-01-19T22:41:47.273Z,44.10
2019-01-19T22:44:19.338Z,41.33
2019-01-19T22:46:51.334Z,47.67
2019-01-19T22:49:23.350Z,40.67
2019-01-19T22:51:55.369Z,46.63
2019-01-19T22:54:27.373Z,49.07
2019-01-19T22:56:59.386Z,45.03
2019-01-19T22:59:31.506Z,43.50
2019-01-19T23:02:09.571Z,41.93
2019-01-19T23:04:41.569Z,48.47
2019-01-19T23:07:13.606Z,45.17
2019-01-19T23:09:45.609Z,44.90
2019-01-19T23:12:17.595Z,49.33
2019-01-19T23:14:50.035Z,39.90
2019-01-19T23:17:22.067Z,47.60
2019-01-19T23:19:54.061Z,41.57
2019-01-19T23:22:26.476Z,49.73
2019-01-19T23:24:58.682Z,41.30
2019-01-19T23:27:32.005Z,40.43
2019-01-19T23:30:06.130Z,46.00
2019-01-19T23:32:38.090Z,48.37
2019-01-19T23:35:10.162Z,44.23
2019-01-19T23:37:42.168Z,49.27
2019-01-19T23:40:14.165Z,45.23
2019-01-19T23:42:47.444Z,43.77
2019-01-19T23:45:19.612Z,46.53
2019-01-19T23:47:51.624Z,46.13
2019-01-19T23:50:23.685Z,40.63
2019-01-19T23:52:56.052Z,45.53
2019-01-19T23:55:28.051Z,43.47
2019-01-19T23:58:00.043Z,39.83
